sensor_id;sensor_type;location;lat;lon;timestamp;temperature;humidity
7341;DHT22;6870;50.944;6.932;2022-09-03T00:01:39;25.70;24.40
7341;DHT22;6870;50.944;6.932;2022-09-03T00:04:16;25.50;24.50
7341;DHT22;6870;50.944;6.932;2022-09-03T00:06:59;25.70;24.70
7341;DHT22;6870;50.944;6.932;2022-09-03T00:09:33;25.60;25.10
7341;DHT22;6870;50.944;6.932;2022-09-03T00:12:10;25.50;25.20
7341;DHT22;6870;50.944;6.932;2022-09-03T00:14:45;25.70;25.30
7341;DHT22;6870;50.944;6.932;2022-09-03T00:17:18;25.60;25.50
7341;DHT22;6870;50.944;6.932;2022-09-03T00:19:54;25.30;25.10
7341;DHT22;6870;50.944;6.932;2022-09-03T00:22:28;25.70;25.70
7341;DHT22;6870;50.944;6.932;2022-09-03T00:25:02;25.60;25.90
7341;DHT22;6870;50.944;6.932;2022-09-03T00:27:36;25.50;26.70
7341;DHT22;6870;50.944;6.932;2022-09-03T00:30:08;25.50;26.10
7341;DHT22;6870;50.944;6.932;2022-09-03T00:32:46;25.50;25.60
7341;DHT22;6870;50.944;6.932;2022-09-03T00:35:19;25.50;26.50
7341;DHT22;6870;50.944;6.932;2022-09-03T00:37:50;25.60;26.60
7341;DHT22;6870;50.944;6.932;2022-09-03T00:40:42;25.40;26.70
7341;DHT22;6870;50.944;6.932;2022-09-03T00:43:22;25.40;26.80
7341;DHT22;6870;50.944;6.932;2022-09-03T00:46:05;25.10;26.70
7341;DHT22;6870;50.944;6.932;2022-09-03T00:48:53;25.30;26.90
7341;DHT22;6870;50.944;6.932;2022-09-03T00:51:32;25.40;26.30
7341;DHT22;6870;50.944;6.932;2022-09-03T00:54:05;25.00;26.50
7341;DHT22;6870;50.944;6.932;2022-09-03T00:56:47;25.10;25.10
7341;DHT22;6870;50.944;6.932;2022-09-03T00:59:30;25.40;26.30
7341;DHT22;6870;50.944;6.932;2022-09-03T01:02:06;25.60;26.50
7341;DHT22;6870;50.944;6.932;2022-09-03T01:04:51;25.50;26.40
7341;DHT22;6870;50.944;6.932;2022-09-03T01:07:33;25.00;26.20
7341;DHT22;6870;50.944;6.932;2022-09-03T01:10:15;25.40;25.80
7341;DHT22;6870;50.944;6.932;2022-09-03T01:12:54;25.30;26.20
7341;DHT22;6870;50.944;6.932;2022-09-03T01:15:30;25.30;26.40
7341;DHT22;6870;50.944;6.932;2022-09-03T01:18:16;25.40;26.40
7341;DHT22;6870;50.944;6.932;2022-09-03T01:20:58;25.40;26.20
7341;DHT22;6870;50.944;6.932;2022-09-03T01:23:52;25.40;26.60
7341;DHT22;6870;50.944;6.932;2022-09-03T01:26:51;25.10;26.40
7341;DHT22;6870;50.944;6.932;2022-09-03T01:29:36;25.70;26.90
7341;DHT22;6870;50.944;6.932;2022-09-03T01:32:15;25.60;26.90
7341;DHT22;6870;50.944;6.932;2022-09-03T01:34:56;25.60;27.00
7341;DHT22;6870;50.944;6.932;2022-09-03T01:37:35;25.10;26.70
7341;DHT22;6870;50.944;6.932;2022-09-03T01:40:17;25.20;26.80
7341;DHT22;6870;50.944;6.932;2022-09-03T01:43:08;25.40;27.00
7341;DHT22;6870;50.944;6.932;2022-09-03T01:45:52;25.30;27.00
7341;DHT22;6870;50.944;6.932;2022-09-03T01:48:40;25.20;27.10
7341;DHT22;6870;50.944;6.932;2022-09-03T01:51:18;25.30;27.10
7341;DHT22;6870;50.944;6.932;2022-09-03T01:54:00;25.30;26.50
7341;DHT22;6870;50.944;6.932;2022-09-03T01:57:07;25.10;26.90
7341;DHT22;6870;50.944;6.932;2022-09-03T02:00:05;25.50;27.30
7341;DHT22;6870;50.944;6.932;2022-09-03T02:02:36;25.20;27.20
7341;DHT22;6870;50.944;6.932;2022-09-03T02:05:09;25.50;27.40
7341;DHT22;6870;50.944;6.932;2022-09-03T02:07:40;25.60;27.50
7341;DHT22;6870;50.944;6.932;2022-09-03T02:10:11;25.60;27.40
7341;DHT22;6870;50.944;6.932;2022-09-03T02:12:44;25.00;27.20
7341;DHT22;6870;50.944;6.932;2022-09-03T02:15:17;25.30;27.40
7341;DHT22;6870;50.944;6.932;2022-09-03T02:17:51;25.10;27.40
7341;DHT22;6870;50.944;6.932;2022-09-03T02:20:24;25.50;27.10
7341;DHT22;6870;50.944;6.932;2022-09-03T02:22:55;25.40;27.60
7341;DHT22;6870;50.944;6.932;2022-09-03T02:25:29;25.20;27.10
7341;DHT22;6870;50.944;6.932;2022-09-03T02:28:01;25.30;27.50
7341;DHT22;6870;50.944;6.932;2022-09-03T02:30:36;25.50;27.20
7341;DHT22;6870;50.944;6.932;2022-09-03T02:33:06;25.30;27.60
7341;DHT22;6870;50.944;6.932;2022-09-03T02:35:34;25.50;27.80
7341;DHT22;6870;50.944;6.932;2022-09-03T02:38:10;25.40;27.90
7341;DHT22;6870;50.944;6.932;2022-09-03T02:40:38;25.00;27.70
7341;DHT22;6870;50.944;6.932;2022-09-03T02:43:10;24.90;27.70
7341;DHT22;6870;50.944;6.932;2022-09-03T02:45:44;25.20;28.00
7341;DHT22;6870;50.944;6.932;2022-09-03T02:48:16;25.30;28.10
7341;DHT22;6870;50.944;6.932;2022-09-03T02:50:47;25.20;28.10
7341;DHT22;6870;50.944;6.932;2022-09-03T02:53:15;25.30;27.80
7341;DHT22;6870;50.944;6.932;2022-09-03T02:55:44;25.50;28.30
7341;DHT22;6870;50.944;6.932;2022-09-03T02:58:12;25.00;27.50
7341;DHT22;6870;50.944;6.932;2022-09-03T03:00:40;25.10;28.10
7341;DHT22;6870;50.944;6.932;2022-09-03T03:03:08;25.00;27.70
7341;DHT22;6870;50.944;6.932;2022-09-03T03:05:44;25.40;28.10
7341;DHT22;6870;50.944;6.932;2022-09-03T03:08:14;25.40;28.40
7341;DHT22;6870;50.944;6.932;2022-09-03T03:10:43;24.90;28.00
7341;DHT22;6870;50.944;6.932;2022-09-03T03:13:12;25.10;28.10
7341;DHT22;6870;50.944;6.932;2022-09-03T03:15:40;25.20;28.50
7341;DHT22;6870;50.944;6.932;2022-09-03T03:18:10;25.30;28.70
7341;DHT22;6870;50.944;6.932;2022-09-03T03:20:42;24.90;28.50
7341;DHT22;6870;50.944;6.932;2022-09-03T03:23:10;25.20;28.30
7341;DHT22;6870;50.944;6.932;2022-09-03T03:25:39;25.00;28.20
7341;DHT22;6870;50.944;6.932;2022-09-03T03:28:07;25.30;28.40
7341;DHT22;6870;50.944;6.932;2022-09-03T03:30:37;25.30;28.60
7341;DHT22;6870;50.944;6.932;2022-09-03T03:33:08;25.00;28.60
7341;DHT22;6870;50.944;6.932;2022-09-03T03:35:36;25.20;28.40
7341;DHT22;6870;50.944;6.932;2022-09-03T03:38:07;25.40;28.50
7341;DHT22;6870;50.944;6.932;2022-09-03T03:40:36;24.80;28.30
7341;DHT22;6870;50.944;6.932;2022-09-03T03:43:05;25.00;28.70
7341;DHT22;6870;50.944;6.932;2022-09-03T03:45:33;25.50;28.80
7341;DHT22;6870;50.944;6.932;2022-09-03T03:48:01;24.90;28.50
7341;DHT22;6870;50.944;6.932;2022-09-03T03:50:30;24.80;28.60
7341;DHT22;6870;50.944;6.932;2022-09-03T03:52:59;25.40;28.90
7341;DHT22;6870;50.944;6.932;2022-09-03T03:55:28;25.20;28.70
7341;DHT22;6870;50.944;6.932;2022-09-03T03:58:01;25.40;29.00
7341;DHT22;6870;50.944;6.932;2022-09-03T04:00:29;24.90;28.80
7341;DHT22;6870;50.944;6.932;2022-09-03T04:02:58;25.20;29.00
7341;DHT22;6870;50.944;6.932;2022-09-03T04:05:26;24.80;28.80
7341;DHT22;6870;50.944;6.932;2022-09-03T04:08:00;25.00;29.10
7341;DHT22;6870;50.944;6.932;2022-09-03T04:10:30;25.20;29.50
7341;DHT22;6870;50.944;6.932;2022-09-03T04:12:59;25.20;29.60
7341;DHT22;6870;50.944;6.932;2022-09-03T04:15:27;25.30;29.40
7341;DHT22;6870;50.944;6.932;2022-09-03T04:17:55;25.00;29.40
7341;DHT22;6870;50.944;6.932;2022-09-03T04:20:23;25.40;29.80
7341;DHT22;6870;50.944;6.932;2022-09-03T04:22:51;25.10;29.60
7341;DHT22;6870;50.944;6.932;2022-09-03T04:25:19;25.40;29.90
7341;DHT22;6870;50.944;6.932;2022-09-03T04:27:50;24.80;29.50
7341;DHT22;6870;50.944;6.932;2022-09-03T04:30:19;25.10;29.90
7341;DHT22;6870;50.944;6.932;2022-09-03T04:32:48;25.20;29.90
7341;DHT22;6870;50.944;6.932;2022-09-03T04:35:21;25.40;30.00
7341;DHT22;6870;50.944;6.932;2022-09-03T04:37:51;25.00;29.90
7341;DHT22;6870;50.944;6.932;2022-09-03T04:40:20;25.40;30.00
7341;DHT22;6870;50.944;6.932;2022-09-03T04:42:50;25.10;29.90
7341;DHT22;6870;50.944;6.932;2022-09-03T04:45:24;25.00;29.50
7341;DHT22;6870;50.944;6.932;2022-09-03T04:47:56;25.30;30.00
7341;DHT22;6870;50.944;6.932;2022-09-03T04:50:25;25.40;29.90
7341;DHT22;6870;50.944;6.932;2022-09-03T04:52:54;24.80;29.50
7341;DHT22;6870;50.944;6.932;2022-09-03T04:55:24;25.10;29.60
7341;DHT22;6870;50.944;6.932;2022-09-03T04:57:53;24.90;29.80
7341;DHT22;6870;50.944;6.932;2022-09-03T05:00:22;24.90;29.90
7341;DHT22;6870;50.944;6.932;2022-09-03T05:02:50;25.40;30.10
7341;DHT22;6870;50.944;6.932;2022-09-03T05:05:18;24.90;29.90
7341;DHT22;6870;50.944;6.932;2022-09-03T05:07:46;25.30;30.10
7341;DHT22;6870;50.944;6.932;2022-09-03T05:10:15;25.30;30.50
7341;DHT22;6870;50.944;6.932;2022-09-03T05:12:46;25.40;30.50
7341;DHT22;6870;50.944;6.932;2022-09-03T05:15:16;25.30;30.00
7341;DHT22;6870;50.944;6.932;2022-09-03T05:17:45;25.50;30.50
7341;DHT22;6870;50.944;6.932;2022-09-03T05:20:13;25.60;30.30
7341;DHT22;6870;50.944;6.932;2022-09-03T05:22:41;25.40;30.20
7341;DHT22;6870;50.944;6.932;2022-09-03T05:25:09;25.30;30.00
7341;DHT22;6870;50.944;6.932;2022-09-03T05:27:37;25.50;30.30
7341;DHT22;6870;50.944;6.932;2022-09-03T05:30:06;25.50;30.10
7341;DHT22;6870;50.944;6.932;2022-09-03T05:32:36;25.30;30.10
7341;DHT22;6870;50.944;6.932;2022-09-03T05:35:05;25.30;29.90
7341;DHT22;6870;50.944;6.932;2022-09-03T05:37:35;25.20;29.80
7341;DHT22;6870;50.944;6.932;2022-09-03T05:40:04;25.50;29.90
7341;DHT22;6870;50.944;6.932;2022-09-03T05:42:35;25.40;30.00
7341;DHT22;6870;50.944;6.932;2022-09-03T05:45:06;25.50;29.90
7341;DHT22;6870;50.944;6.932;2022-09-03T05:47:38;25.50;29.90
7341;DHT22;6870;50.944;6.932;2022-09-03T05:50:07;25.70;30.20
7341;DHT22;6870;50.944;6.932;2022-09-03T05:52:36;25.10;29.90
7341;DHT22;6870;50.944;6.932;2022-09-03T05:55:05;25.60;30.00
7341;DHT22;6870;50.944;6.932;2022-09-03T05:57:38;25.70;30.00
7341;DHT22;6870;50.944;6.932;2022-09-03T06:00:08;25.50;29.90
7341;DHT22;6870;50.944;6.932;2022-09-03T06:02:38;25.50;30.00
7341;DHT22;6870;50.944;6.932;2022-09-03T06:05:08;25.50;29.80
7341;DHT22;6870;50.944;6.932;2022-09-03T06:07:36;25.40;29.50
7341;DHT22;6870;50.944;6.932;2022-09-03T06:10:05;25.10;29.20
7341;DHT22;6870;50.944;6.932;2022-09-03T06:12:33;25.50;29.60
7341;DHT22;6870;50.944;6.932;2022-09-03T06:15:03;25.50;29.70
7341;DHT22;6870;50.944;6.932;2022-09-03T06:17:32;25.30;29.50
7341;DHT22;6870;50.944;6.932;2022-09-03T06:20:02;25.50;29.40
7341;DHT22;6870;50.944;6.932;2022-09-03T06:22:30;25.50;29.40
7341;DHT22;6870;50.944;6.932;2022-09-03T06:24:59;25.00;19.60
7341;DHT22;6870;50.944;6.932;2022-09-03T06:27:27;24.30;18.90
7341;DHT22;6870;50.944;6.932;2022-09-03T06:29:56;24.20;19.20
7341;DHT22;6870;50.944;6.932;2022-09-03T06:32:24;24.20;17.90
7341;DHT22;6870;50.944;6.932;2022-09-03T06:34:54;24.10;17.60
7341;DHT22;6870;50.944;6.932;2022-09-03T06:37:24;24.20;19.30
7341;DHT22;6870;50.944;6.932;2022-09-03T06:39:52;23.80;19.40
7341;DHT22;6870;50.944;6.932;2022-09-03T06:42:21;24.30;19.70
7341;DHT22;6870;50.944;6.932;2022-09-03T06:44:49;24.40;19.70
7341;DHT22;6870;50.944;6.932;2022-09-03T06:47:17;24.90;19.70
7341;DHT22;6870;50.944;6.932;2022-09-03T06:49:45;25.00;20.00
7341;DHT22;6870;50.944;6.932;2022-09-03T06:52:13;25.00;19.90
7341;DHT22;6870;50.944;6.932;2022-09-03T06:54:43;25.40;20.00
7341;DHT22;6870;50.944;6.932;2022-09-03T06:57:11;25.30;19.80
7341;DHT22;6870;50.944;6.932;2022-09-03T06:59:39;25.50;19.80
7341;DHT22;6870;50.944;6.932;2022-09-03T07:02:09;25.50;19.50
7341;DHT22;6870;50.944;6.932;2022-09-03T07:04:38;25.60;20.00
7341;DHT22;6870;50.944;6.932;2022-09-03T07:07:06;25.50;19.90
7341;DHT22;6870;50.944;6.932;2022-09-03T07:09:39;25.00;19.50
7341;DHT22;6870;50.944;6.932;2022-09-03T07:12:14;25.20;19.90
7341;DHT22;6870;50.944;6.932;2022-09-03T07:14:46;25.70;20.10
7341;DHT22;6870;50.944;6.932;2022-09-03T07:17:17;25.50;20.10
7341;DHT22;6870;50.944;6.932;2022-09-03T07:19:45;25.70;20.20
7341;DHT22;6870;50.944;6.932;2022-09-03T07:22:13;25.30;19.90
7341;DHT22;6870;50.944;6.932;2022-09-03T07:24:41;25.50;20.10
7341;DHT22;6870;50.944;6.932;2022-09-03T07:27:13;25.70;20.30
7341;DHT22;6870;50.944;6.932;2022-09-03T07:29:41;25.70;20.20
7341;DHT22;6870;50.944;6.932;2022-09-03T07:32:10;25.80;19.40
7341;DHT22;6870;50.944;6.932;2022-09-03T07:34:41;25.70;19.40
7341;DHT22;6870;50.944;6.932;2022-09-03T07:37:09;25.80;19.40
7341;DHT22;6870;50.944;6.932;2022-09-03T07:39:40;25.60;19.00
7341;DHT22;6870;50.944;6.932;2022-09-03T07:42:08;25.70;19.40
7341;DHT22;6870;50.944;6.932;2022-09-03T07:44:38;25.90;19.50
7341;DHT22;6870;50.944;6.932;2022-09-03T07:47:06;26.00;18.70
7341;DHT22;6870;50.944;6.932;2022-09-03T07:49:34;26.00;18.20
7341;DHT22;6870;50.944;6.932;2022-09-03T07:52:02;25.60;18.10
7341;DHT22;6870;50.944;6.932;2022-09-03T07:54:45;25.90;18.40
7341;DHT22;6870;50.944;6.932;2022-09-03T07:57:13;25.90;17.80
7341;DHT22;6870;50.944;6.932;2022-09-03T07:59:42;26.10;18.00
7341;DHT22;6870;50.944;6.932;2022-09-03T08:02:10;25.70;17.80
7341;DHT22;6870;50.944;6.932;2022-09-03T08:04:38;25.60;18.00
7341;DHT22;6870;50.944;6.932;2022-09-03T08:07:06;25.70;17.90
7341;DHT22;6870;50.944;6.932;2022-09-03T08:09:35;25.70;17.80
7341;DHT22;6870;50.944;6.932;2022-09-03T08:12:03;25.60;18.00
7341;DHT22;6870;50.944;6.932;2022-09-03T08:14:31;26.10;18.10
7341;DHT22;6870;50.944;6.932;2022-09-03T08:17:01;25.80;17.40
7341;DHT22;6870;50.944;6.932;2022-09-03T08:19:29;25.70;16.40
7341;DHT22;6870;50.944;6.932;2022-09-03T08:21:57;25.60;15.80
7341;DHT22;6870;50.944;6.932;2022-09-03T08:24:25;25.50;14.90
7341;DHT22;6870;50.944;6.932;2022-09-03T08:26:53;25.60;16.10
7341;DHT22;6870;50.944;6.932;2022-09-03T08:29:21;25.50;15.00
7341;DHT22;6870;50.944;6.932;2022-09-03T08:31:50;25.50;15.10
7341;DHT22;6870;50.944;6.932;2022-09-03T08:34:19;25.40;15.30
7341;DHT22;6870;50.944;6.932;2022-09-03T08:36:47;25.00;15.20
7341;DHT22;6870;50.944;6.932;2022-09-03T08:39:15;25.40;15.90
7341;DHT22;6870;50.944;6.932;2022-09-03T08:42:13;25.00;15.90
7341;DHT22;6870;50.944;6.932;2022-09-03T08:44:48;25.10;16.60
7341;DHT22;6870;50.944;6.932;2022-09-03T08:47:22;25.30;16.70
7341;DHT22;6870;50.944;6.932;2022-09-03T08:49:57;24.90;16.90
7341;DHT22;6870;50.944;6.932;2022-09-03T08:52:31;24.50;16.40
7341;DHT22;6870;50.944;6.932;2022-09-03T08:55:17;24.90;16.40
7341;DHT22;6870;50.944;6.932;2022-09-03T08:57:50;24.80;16.80
7341;DHT22;6870;50.944;6.932;2022-09-03T09:00:22;25.00;17.20
7341;DHT22;6870;50.944;6.932;2022-09-03T09:03:05;25.00;16.90
7341;DHT22;6870;50.944;6.932;2022-09-03T09:05:54;24.90;17.20
7341;DHT22;6870;50.944;6.932;2022-09-03T09:08:36;24.90;16.60
7341;DHT22;6870;50.944;6.932;2022-09-03T09:11:15;25.20;17.30
7341;DHT22;6870;50.944;6.932;2022-09-03T09:13:55;24.90;17.10
7341;DHT22;6870;50.944;6.932;2022-09-03T09:16:33;24.60;16.90
7341;DHT22;6870;50.944;6.932;2022-09-03T09:19:16;24.80;17.20
7341;DHT22;6870;50.944;6.932;2022-09-03T09:21:56;24.80;17.10
7341;DHT22;6870;50.944;6.932;2022-09-03T09:24:34;24.90;16.70
7341;DHT22;6870;50.944;6.932;2022-09-03T09:27:05;24.80;16.80
7341;DHT22;6870;50.944;6.932;2022-09-03T09:29:40;24.90;17.00
7341;DHT22;6870;50.944;6.932;2022-09-03T09:32:09;24.80;17.30
7341;DHT22;6870;50.944;6.932;2022-09-03T09:34:39;24.80;16.80
7341;DHT22;6870;50.944;6.932;2022-09-03T09:37:11;25.20;17.00
7341;DHT22;6870;50.944;6.932;2022-09-03T09:39:53;25.20;17.10
7341;DHT22;6870;50.944;6.932;2022-09-03T09:42:23;25.30;17.40
7341;DHT22;6870;50.944;6.932;2022-09-03T09:44:51;24.90;17.70
7341;DHT22;6870;50.944;6.932;2022-09-03T09:47:25;24.80;17.00
7341;DHT22;6870;50.944;6.932;2022-09-03T09:49:58;25.30;17.60
7341;DHT22;6870;50.944;6.932;2022-09-03T09:52:30;25.40;17.80
7341;DHT22;6870;50.944;6.932;2022-09-03T09:55:06;25.10;17.20
7341;DHT22;6870;50.944;6.932;2022-09-03T09:57:35;25.40;17.70
7341;DHT22;6870;50.944;6.932;2022-09-03T10:00:06;25.50;17.80
7341;DHT22;6870;50.944;6.932;2022-09-03T10:02:39;25.20;17.80
7341;DHT22;6870;50.944;6.932;2022-09-03T10:05:13;25.50;18.00
7341;DHT22;6870;50.944;6.932;2022-09-03T10:07:55;25.60;18.00
7341;DHT22;6870;50.944;6.932;2022-09-03T10:10:25;25.50;17.90
7341;DHT22;6870;50.944;6.932;2022-09-03T10:12:58;25.70;17.70
7341;DHT22;6870;50.944;6.932;2022-09-03T10:15:34;25.60;18.10
7341;DHT22;6870;50.944;6.932;2022-09-03T10:18:14;25.50;17.80
7341;DHT22;6870;50.944;6.932;2022-09-03T10:20:57;25.70;18.30
7341;DHT22;6870;50.944;6.932;2022-09-03T10:23:38;26.00;18.40
7341;DHT22;6870;50.944;6.932;2022-09-03T10:26:18;25.70;18.30
7341;DHT22;6870;50.944;6.932;2022-09-03T10:29:00;25.80;18.40
7341;DHT22;6870;50.944;6.932;2022-09-03T10:31:45;25.70;18.10
7341;DHT22;6870;50.944;6.932;2022-09-03T10:34:26;25.60;18.60
7341;DHT22;6870;50.944;6.932;2022-09-03T10:37:06;26.00;18.50
7341;DHT22;6870;50.944;6.932;2022-09-03T10:40:04;25.80;18.50
7341;DHT22;6870;50.944;6.932;2022-09-03T10:42:43;25.70;18.30
7341;DHT22;6870;50.944;6.932;2022-09-03T10:45:18;25.90;18.20
7341;DHT22;6870;50.944;6.932;2022-09-03T10:48:09;26.20;18.20
7341;DHT22;6870;50.944;6.932;2022-09-03T10:50:49;26.30;18.20
7341;DHT22;6870;50.944;6.932;2022-09-03T10:53:36;26.10;17.70
7341;DHT22;6870;50.944;6.932;2022-09-03T10:56:21;25.70;17.70
7341;DHT22;6870;50.944;6.932;2022-09-03T10:59:09;26.00;17.80
7341;DHT22;6870;50.944;6.932;2022-09-03T11:02:03;26.20;17.90
7341;DHT22;6870;50.944;6.932;2022-09-03T11:04:47;25.70;17.90
7341;DHT22;6870;50.944;6.932;2022-09-03T11:07:20;26.20;18.10
7341;DHT22;6870;50.944;6.932;2022-09-03T11:09:56;26.20;18.10
7341;DHT22;6870;50.944;6.932;2022-09-03T11:12:31;26.40;17.70
7341;DHT22;6870;50.944;6.932;2022-09-03T11:15:02;26.40;17.80
7341;DHT22;6870;50.944;6.932;2022-09-03T11:17:37;26.10;17.50
7341;DHT22;6870;50.944;6.932;2022-09-03T11:20:11;26.40;17.70
7341;DHT22;6870;50.944;6.932;2022-09-03T11:22:43;26.40;17.40
7341;DHT22;6870;50.944;6.932;2022-09-03T11:25:15;26.60;17.50
7341;DHT22;6870;50.944;6.932;2022-09-03T11:27:54;26.40;17.20
7341;DHT22;6870;50.944;6.932;2022-09-03T11:30:31;26.60;17.30
7341;DHT22;6870;50.944;6.932;2022-09-03T11:33:07;26.50;17.20
7341;DHT22;6870;50.944;6.932;2022-09-03T11:35:39;26.80;17.20
7341;DHT22;6870;50.944;6.932;2022-09-03T11:38:20;26.80;17.20
7341;DHT22;6870;50.944;6.932;2022-09-03T11:40:59;26.80;17.00
7341;DHT22;6870;50.944;6.932;2022-09-03T11:43:30;26.80;17.00
7341;DHT22;6870;50.944;6.932;2022-09-03T11:46:05;26.90;17.00
7341;DHT22;6870;50.944;6.932;2022-09-03T11:48:41;26.80;17.00
7341;DHT22;6870;50.944;6.932;2022-09-03T11:51:19;26.80;17.00
7341;DHT22;6870;50.944;6.932;2022-09-03T11:53:56;26.90;17.60
7341;DHT22;6870;50.944;6.932;2022-09-03T11:56:27;27.00;17.10
7341;DHT22;6870;50.944;6.932;2022-09-03T11:59:15;26.80;17.20
7341;DHT22;6870;50.944;6.932;2022-09-03T12:01:48;26.80;17.30
7341;DHT22;6870;50.944;6.932;2022-09-03T12:04:21;26.80;17.30
7341;DHT22;6870;50.944;6.932;2022-09-03T12:07:07;27.00;17.40
7341;DHT22;6870;50.944;6.932;2022-09-03T12:09:53;26.70;17.10
7341;DHT22;6870;50.944;6.932;2022-09-03T12:12:41;27.10;17.40
7341;DHT22;6870;50.944;6.932;2022-09-03T12:15:25;27.10;17.30
7341;DHT22;6870;50.944;6.932;2022-09-03T12:18:04;27.00;17.30
7341;DHT22;6870;50.944;6.932;2022-09-03T12:20:47;27.10;17.10
7341;DHT22;6870;50.944;6.932;2022-09-03T12:23:26;27.10;17.10
7341;DHT22;6870;50.944;6.932;2022-09-03T12:25:59;27.30;17.40
7341;DHT22;6870;50.944;6.932;2022-09-03T12:28:33;27.00;17.30
7341;DHT22;6870;50.944;6.932;2022-09-03T12:31:08;27.00;17.20
7341;DHT22;6870;50.944;6.932;2022-09-03T12:33:48;27.20;17.30
7341;DHT22;6870;50.944;6.932;2022-09-03T12:36:17;27.20;17.40
7341;DHT22;6870;50.944;6.932;2022-09-03T12:38:45;27.30;17.30
7341;DHT22;6870;50.944;6.932;2022-09-03T12:41:34;27.60;17.40
7341;DHT22;6870;50.944;6.932;2022-09-03T12:44:04;27.20;17.00
7341;DHT22;6870;50.944;6.932;2022-09-03T12:46:33;27.60;17.00
7341;DHT22;6870;50.944;6.932;2022-09-03T12:49:03;27.80;17.10
7341;DHT22;6870;50.944;6.932;2022-09-03T12:51:59;27.60;17.10
7341;DHT22;6870;50.944;6.932;2022-09-03T12:54:33;27.60;17.60
7341;DHT22;6870;50.944;6.932;2022-09-03T12:57:02;27.00;17.40
7341;DHT22;6870;50.944;6.932;2022-09-03T12:59:33;27.00;17.70
7341;DHT22;6870;50.944;6.932;2022-09-03T13:02:14;27.00;17.70
7341;DHT22;6870;50.944;6.932;2022-09-03T13:04:46;27.00;17.60
7341;DHT22;6870;50.944;6.932;2022-09-03T13:07:22;27.20;17.70
7341;DHT22;6870;50.944;6.932;2022-09-03T13:09:56;27.20;17.40
7341;DHT22;6870;50.944;6.932;2022-09-03T13:12:31;27.30;17.10
7341;DHT22;6870;50.944;6.932;2022-09-03T13:15:07;27.80;17.50
7341;DHT22;6870;50.944;6.932;2022-09-03T13:17:51;27.40;17.10
7341;DHT22;6870;50.944;6.932;2022-09-03T13:20:37;27.80;17.30
7341;DHT22;6870;50.944;6.932;2022-09-03T13:26:45;27.80;17.50
7341;DHT22;6870;50.944;6.932;2022-09-03T13:29:36;27.60;16.90
7341;DHT22;6870;50.944;6.932;2022-09-03T13:32:25;27.80;16.80
7341;DHT22;6870;50.944;6.932;2022-09-03T13:35:07;27.90;17.00
7341;DHT22;6870;50.944;6.932;2022-09-03T13:37:40;27.90;17.00
7341;DHT22;6870;50.944;6.932;2022-09-03T13:40:17;27.70;17.00
7341;DHT22;6870;50.944;6.932;2022-09-03T13:42:51;27.80;17.30
7341;DHT22;6870;50.944;6.932;2022-09-03T13:45:27;27.80;17.00
7341;DHT22;6870;50.944;6.932;2022-09-03T13:48:01;27.90;17.00
7341;DHT22;6870;50.944;6.932;2022-09-03T13:51:03;27.60;16.80
7341;DHT22;6870;50.944;6.932;2022-09-03T13:53:41;27.80;16.70
7341;DHT22;6870;50.944;6.932;2022-09-03T13:56:24;27.90;16.80
7341;DHT22;6870;50.944;6.932;2022-09-03T13:59:06;27.80;17.00
7341;DHT22;6870;50.944;6.932;2022-09-03T14:02:04;28.20;16.80
7341;DHT22;6870;50.944;6.932;2022-09-03T14:04:46;27.90;17.00
7341;DHT22;6870;50.944;6.932;2022-09-03T14:07:23;27.90;16.90
7341;DHT22;6870;50.944;6.932;2022-09-03T14:09:57;27.90;16.90
7341;DHT22;6870;50.944;6.932;2022-09-03T14:12:39;28.30;17.30
7341;DHT22;6870;50.944;6.932;2022-09-03T14:15:17;28.10;17.30
7341;DHT22;6870;50.944;6.932;2022-09-03T14:17:54;28.10;17.00
7341;DHT22;6870;50.944;6.932;2022-09-03T14:20:28;28.10;17.40
7341;DHT22;6870;50.944;6.932;2022-09-03T14:23:03;27.80;17.30
7341;DHT22;6870;50.944;6.932;2022-09-03T14:25:32;27.80;17.40
7341;DHT22;6870;50.944;6.932;2022-09-03T14:28:14;27.80;17.10
7341;DHT22;6870;50.944;6.932;2022-09-03T14:30:50;28.20;17.30
7341;DHT22;6870;50.944;6.932;2022-09-03T14:33:29;27.80;17.20
7341;DHT22;6870;50.944;6.932;2022-09-03T14:36:10;27.40;17.20
7341;DHT22;6870;50.944;6.932;2022-09-03T14:42:09;27.90;17.30
7341;DHT22;6870;50.944;6.932;2022-09-03T14:44:59;27.90;17.30
7341;DHT22;6870;50.944;6.932;2022-09-03T14:48:07;27.90;17.40
7341;DHT22;6870;50.944;6.932;2022-09-03T14:51:01;27.80;17.50
7341;DHT22;6870;50.944;6.932;2022-09-03T14:57:30;27.40;17.60
7341;DHT22;6870;50.944;6.932;2022-09-03T15:00:14;27.40;17.90
7341;DHT22;6870;50.944;6.932;2022-09-03T15:03:08;27.70;18.30
7341;DHT22;6870;50.944;6.932;2022-09-03T15:06:00;27.60;18.50
7341;DHT22;6870;50.944;6.932;2022-09-03T15:08:47;27.00;18.50
7341;DHT22;6870;50.944;6.932;2022-09-03T15:11:25;27.50;18.80
7341;DHT22;6870;50.944;6.932;2022-09-03T15:14:03;27.10;18.50
7341;DHT22;6870;50.944;6.932;2022-09-03T15:16:46;27.00;18.40
7341;DHT22;6870;50.944;6.932;2022-09-03T15:19:35;27.10;18.70
7341;DHT22;6870;50.944;6.932;2022-09-03T15:22:24;27.20;18.90
7341;DHT22;6870;50.944;6.932;2022-09-03T15:25:08;27.00;18.90
7341;DHT22;6870;50.944;6.932;2022-09-03T15:27:55;26.90;18.90
7341;DHT22;6870;50.944;6.932;2022-09-03T15:30:33;27.30;19.00
7341;DHT22;6870;50.944;6.932;2022-09-03T15:33:11;27.00;18.80
7341;DHT22;6870;50.944;6.932;2022-09-03T15:36:03;27.00;19.30
7341;DHT22;6870;50.944;6.932;2022-09-03T15:38:43;27.30;19.50
7341;DHT22;6870;50.944;6.932;2022-09-03T15:41:28;26.90;19.60
7341;DHT22;6870;50.944;6.932;2022-09-03T15:44:07;26.70;19.60
7341;DHT22;6870;50.944;6.932;2022-09-03T15:46:50;27.20;20.00
7341;DHT22;6870;50.944;6.932;2022-09-03T15:49:43;26.80;19.80
7341;DHT22;6870;50.944;6.932;2022-09-03T15:52:25;26.70;19.90
7341;DHT22;6870;50.944;6.932;2022-09-03T15:55:01;26.70;20.00
7341;DHT22;6870;50.944;6.932;2022-09-03T15:57:39;26.70;20.20
7341;DHT22;6870;50.944;6.932;2022-09-03T16:00:12;26.60;20.30
7341;DHT22;6870;50.944;6.932;2022-09-03T16:02:52;26.70;20.60
7341;DHT22;6870;50.944;6.932;2022-09-03T16:05:36;26.50;20.60
7341;DHT22;6870;50.944;6.932;2022-09-03T16:08:16;26.80;20.80
7341;DHT22;6870;50.944;6.932;2022-09-03T16:10:57;26.40;20.50
7341;DHT22;6870;50.944;6.932;2022-09-03T16:13:46;26.60;20.70
7341;DHT22;6870;50.944;6.932;2022-09-03T16:16:25;26.70;21.00
7341;DHT22;6870;50.944;6.932;2022-09-03T16:19:03;26.80;20.70
7341;DHT22;6870;50.944;6.932;2022-09-03T16:21:37;26.70;20.70
7341;DHT22;6870;50.944;6.932;2022-09-03T16:24:16;26.70;20.70
7341;DHT22;6870;50.944;6.932;2022-09-03T16:26:50;26.30;20.50
7341;DHT22;6870;50.944;6.932;2022-09-03T16:29:27;26.20;20.90
7341;DHT22;6870;50.944;6.932;2022-09-03T16:32:14;26.60;21.40
7341;DHT22;6870;50.944;6.932;2022-09-03T16:34:55;26.30;21.00
7341;DHT22;6870;50.944;6.932;2022-09-03T16:37:36;26.50;20.80
7341;DHT22;6870;50.944;6.932;2022-09-03T16:40:16;26.70;21.00
7341;DHT22;6870;50.944;6.932;2022-09-03T16:42:58;26.70;21.60
7341;DHT22;6870;50.944;6.932;2022-09-03T16:45:56;26.50;21.70
7341;DHT22;6870;50.944;6.932;2022-09-03T16:48:36;26.30;21.30
7341;DHT22;6870;50.944;6.932;2022-09-03T16:51:15;26.30;21.50
7341;DHT22;6870;50.944;6.932;2022-09-03T16:53:57;26.70;22.20
7341;DHT22;6870;50.944;6.932;2022-09-03T16:56:50;26.60;22.00
7341;DHT22;6870;50.944;6.932;2022-09-03T17:02:48;26.60;24.50
7341;DHT22;6870;50.944;6.932;2022-09-03T17:08:59;26.50;26.60
7341;DHT22;6870;50.944;6.932;2022-09-03T17:11:41;26.60;27.00
7341;DHT22;6870;50.944;6.932;2022-09-03T17:14:33;26.50;27.40